Time,TemperatureF,DewpointF,PressureIn,WindDirection,WindDirectionDegrees,WindSpeedMPH,WindSpeedGustMPH,Humidity,HourlyPrecipIn,Conditions,Clouds,dailyrainin,SolarRadiationWatts/m^2,SoftwareType,DateUTC
2013-05-08 00:06:00,59.7,54.0,29.96,NE,53,0.0,1.0,82,0.00,,,0.02,0,weatherlink.com 1.10,2013-05-08 04:06:00,
2013-05-08 00:21:00,60.3,54.0,29.96,NE,53,0.0,1.0,81,0.00,,,0.02,0,weatherlink.com 1.10,2013-05-08 04:21:00,
2013-05-08 00:36:00,60.2,55.0,29.96,NE,53,0.0,0.0,84,0.00,,,0.02,0,weatherlink.com 1.10,2013-05-08 04:36:00,
2013-05-08 00:51:00,59.0,55.0,29.97,East,82,0.0,2.0,85,0.00,,,0.02,0,weatherlink.com 1.10,2013-05-08 04:51:00,
2013-05-08 01:06:00,58.7,54.0,29.97,East,82,0.0,0.0,85,0.00,,,0.02,0,weatherlink.com 1.10,2013-05-08 05:06:00,
2013-05-08 01:21:00,58.8,55.0,29.96,East,82,0.0,0.0,86,0.00,,,0.02,0,weatherlink.com 1.10,2013-05-08 05:21:00,
2013-05-08 01:36:00,58.9,55.0,29.96,East,82,0.0,0.0,86,0.00,,,0.02,0,weatherlink.com 1.10,2013-05-08 05:36:00,
2013-05-08 01:51:00,59.1,55.0,29.96,East,82,0.0,0.0,85,0.00,,,0.02,0,weatherlink.com 1.10,2013-05-08 05:51:00,
2013-05-08 02:06:00,59.3,55.0,29.95,East,82,0.0,0.0,85,0.00,,,0.02,0,weatherlink.com 1.10,2013-05-08 06:06:00,
2013-05-08 02:21:00,59.4,55.0,29.95,East,82,0.0,0.0,86,0.00,,,0.02,0,weatherlink.com 1.10,2013-05-08 06:21:00,
2013-05-08 02:36:00,58.9,55.0,29.95,East,82,0.0,0.0,87,0.00,,,0.02,0,weatherlink.com 1.10,2013-05-08 06:36:00,
2013-05-08 02:51:00,58.4,55.0,29.94,East,82,0.0,0.0,88,0.00,,,0.02,0,weatherlink.com 1.10,2013-05-08 06:51:00,
2013-05-08 03:06:00,58.0,55.0,29.94,East,82,0.0,0.0,89,0.00,,,0.02,0,weatherlink.com 1.10,2013-05-08 07:06:00,
2013-05-08 03:21:00,57.5,54.0,29.94,East,82,0.0,0.0,89,0.00,,,0.02,0,weatherlink.com 1.10,2013-05-08 07:21:00,
2013-05-08 03:36:00,57.1,55.0,29.94,East,82,0.0,0.0,91,0.00,,,0.02,0,weatherlink.com 1.10,2013-05-08 07:36:00,
2013-05-08 03:51:00,56.8,54.0,29.94,East,82,0.0,0.0,91,0.00,,,0.02,0,weatherlink.com 1.10,2013-05-08 07:51:00,
2013-05-08 04:06:00,56.4,54.0,29.94,East,82,0.0,0.0,91,0.00,,,0.02,0,weatherlink.com 1.10,2013-05-08 08:06:00,
2013-05-08 04:21:00,56.4,54.0,29.94,East,82,0.0,0.0,92,0.00,,,0.00,0,weatherlink.com 1.10,2013-05-08 08:21:00,
2013-05-08 04:36:00,56.6,55.0,29.94,East,82,0.0,0.0,93,0.00,,,0.00,0,weatherlink.com 1.10,2013-05-08 08:36:00,
2013-05-08 04:51:00,56.3,54.0,29.94,East,82,0.0,0.0,93,0.00,,,0.00,0,weatherlink.com 1.10,2013-05-08 08:51:00,
2013-05-08 05:06:00,55.9,54.0,29.94,East,82,0.0,0.0,92,0.00,,,0.00,0,weatherlink.com 1.10,2013-05-08 09:06:00,
2013-05-08 05:21:00,55.5,53.0,29.94,East,82,0.0,0.0,92,0.00,,,0.00,0,weatherlink.com 1.10,2013-05-08 09:21:00,
2013-05-08 05:36:00,55.2,53.0,29.94,East,82,0.0,0.0,93,0.00,,,0.00,0,weatherlink.com 1.10,2013-05-08 09:36:00,
2013-05-08 05:51:00,55.2,53.0,29.94,East,82,0.0,0.0,93,0.00,,,0.00,0,weatherlink.com 1.10,2013-05-08 09:51:00,
2013-05-08 06:06:00,55.5,54.0,29.95,East,82,0.0,0.0,94,0.00,,,0.00,0,weatherlink.com 1.10,2013-05-08 10:06:00,
2013-05-08 06:21:00,55.4,54.0,29.96,East,82,0.0,0.0,94,0.00,,,0.00,0,weatherlink.com 1.10,2013-05-08 10:21:00,
2013-05-08 06:36:00,55.3,54.0,29.96,East,82,0.0,0.0,94,0.00,,,0.00,0,weatherlink.com 1.10,2013-05-08 10:36:00,
2013-05-08 06:51:00,55.0,53.0,29.97,East,82,0.0,0.0,93,0.00,,,0.00,7,weatherlink.com 1.10,2013-05-08 10:51:00,
2013-05-08 07:06:00,55.1,54.0,29.97,East,82,0.0,0.0,94,0.00,,,0.00,14,weatherlink.com 1.10,2013-05-08 11:06:00,
2013-05-08 07:21:00,55.5,54.0,29.98,East,82,0.0,0.0,94,0.00,,,0.00,25,weatherlink.com 1.10,2013-05-08 11:21:00,
2013-05-08 07:36:00,55.7,54.0,29.99,East,82,0.0,0.0,95,0.00,,,0.00,49,weatherlink.com 1.10,2013-05-08 11:36:00,
2013-05-08 07:51:00,56.3,55.0,29.99,East,82,0.0,0.0,95,0.00,,,0.00,39,weatherlink.com 1.10,2013-05-08 11:51:00,
2013-05-08 08:06:00,56.8,55.0,30.00,East,82,0.0,0.0,95,0.00,,,0.00,42,weatherlink.com 1.10,2013-05-08 12:06:00,
2013-05-08 08:21:00,57.3,56.0,30.00,East,82,0.0,0.0,95,0.00,,,0.00,47,weatherlink.com 1.10,2013-05-08 12:21:00,
2013-05-08 08:36:00,57.9,57.0,30.01,East,82,0.0,1.0,95,0.00,,,0.00,137,weatherlink.com 1.10,2013-05-08 12:36:00,
2013-05-08 08:52:00,59.5,58.0,30.01,East,82,0.0,0.0,95,0.00,,,0.00,325,weatherlink.com 1.10,2013-05-08 12:52:00,
2013-05-08 09:07:00,61.8,60.0,30.01,East,82,0.0,1.0,92,0.00,,,0.00,445,weatherlink.com 1.10,2013-05-08 13:07:00,
2013-05-08 09:22:00,64.7,61.0,30.01,East,82,0.0,1.0,86,0.00,,,0.00,469,weatherlink.com 1.10,2013-05-08 13:22:00,
2013-05-08 09:37:00,67.5,60.0,30.01,East,82,0.0,1.0,77,0.00,,,0.00,513,weatherlink.com 1.10,2013-05-08 13:37:00,
2013-05-08 09:52:00,69.1,59.0,30.02,ENE,77,0.0,4.0,69,0.00,,,0.00,571,weatherlink.com 1.10,2013-05-08 13:52:00,
2013-05-08 10:07:00,70.0,58.0,30.02,East,85,0.0,2.0,65,0.00,,,0.00,603,weatherlink.com 1.10,2013-05-08 14:07:00,
2013-05-08 10:22:00,70.7,59.0,30.02,SW,234,0.0,4.0,66,0.00,,,0.00,701,weatherlink.com 1.10,2013-05-08 14:22:00,
2013-05-08 10:37:00,71.5,57.0,30.02,North,360,1.0,4.0,61,0.00,,,0.00,719,weatherlink.com 1.10,2013-05-08 14:37:00,
2013-05-08 10:52:00,71.9,56.0,30.02,East,94,4.0,5.0,58,0.00,,,0.00,752,weatherlink.com 1.10,2013-05-08 14:52:00,
2013-05-08 11:07:00,72.4,56.0,30.02,NNW,343,1.0,7.0,56,0.00,,,0.00,793,weatherlink.com 1.10,2013-05-08 15:07:00,
2013-05-08 11:22:00,73.9,56.0,30.02,SSE,158,1.0,6.0,53,0.00,,,0.00,846,weatherlink.com 1.10,2013-05-08 15:22:00,
2013-05-08 11:37:00,73.8,56.0,30.02,NNW,335,4.0,6.0,54,0.00,,,0.00,814,weatherlink.com 1.10,2013-05-08 15:37:00,
2013-05-08 11:52:00,74.0,55.0,30.01,ENE,58,4.0,6.0,51,0.00,,,0.00,935,weatherlink.com 1.10,2013-05-08 15:52:00,
2013-05-08 12:08:00,74.1,57.0,30.01,West,262,1.0,6.0,56,0.00,,,0.00,995,weatherlink.com 1.10,2013-05-08 16:08:00,
2013-05-08 12:22:00,74.7,52.0,30.01,NE,44,1.0,6.0,45,0.00,,,0.00,679,weatherlink.com 1.10,2013-05-08 16:22:00,
2013-05-08 12:37:00,74.9,57.0,30.01,SW,228,6.0,9.0,54,0.00,,,0.00,1097,weatherlink.com 1.10,2013-05-08 16:37:00,
2013-05-08 12:52:00,75.2,55.0,30.00,SW,236,3.0,7.0,49,0.00,,,0.00,283,weatherlink.com 1.10,2013-05-08 16:52:00,
2013-05-08 13:07:00,73.4,57.0,30.00,WSW,241,1.0,5.0,56,0.00,,,0.00,425,weatherlink.com 1.10,2013-05-08 17:07:00,
2013-05-08 13:22:00,73.7,56.0,30.00,West,281,4.0,5.0,55,0.00,,,0.00,322,weatherlink.com 1.10,2013-05-08 17:22:00,
2013-05-08 13:37:00,73.3,55.0,30.00,WNW,288,0.0,2.0,53,0.00,,,0.00,243,weatherlink.com 1.10,2013-05-08 17:37:00,
2013-05-08 13:52:00,72.9,57.0,30.00,WNW,300,0.0,2.0,58,0.00,,,0.00,285,weatherlink.com 1.10,2013-05-08 17:52:00,
2013-05-08 14:07:00,73.1,57.0,30.00,North,351,0.0,2.0,57,0.00,,,0.00,297,weatherlink.com 1.10,2013-05-08 18:07:00,
2013-05-08 14:22:00,72.7,58.0,30.00,NW,306,0.0,2.0,60,0.00,,,0.00,418,weatherlink.com 1.10,2013-05-08 18:22:00,
2013-05-08 14:37:00,74.6,58.0,29.99,West,263,4.0,5.0,56,0.00,,,0.00,1046,weatherlink.com 1.10,2013-05-08 18:37:00,
2013-05-08 14:52:00,74.2,57.0,30.00,WSW,241,0.0,6.0,55,0.00,,,0.00,441,weatherlink.com 1.10,2013-05-08 18:52:00,
2013-05-08 15:07:00,74.5,59.0,29.99,SW,232,0.0,7.0,59,0.00,,,0.00,396,weatherlink.com 1.10,2013-05-08 19:07:00,
2013-05-08 15:23:00,74.6,58.0,29.99,NE,46,3.0,6.0,56,0.00,,,0.00,380,weatherlink.com 1.10,2013-05-08 19:23:00,
2013-05-08 15:38:00,74.5,57.0,29.99,SSW,211,0.0,6.0,54,0.00,,,0.00,483,weatherlink.com 1.10,2013-05-08 19:38:00,
2013-05-08 15:53:00,75.7,57.0,29.98,SW,231,2.0,5.0,52,0.00,,,0.00,998,weatherlink.com 1.10,2013-05-08 19:53:00,
2013-05-08 16:08:00,76.9,56.0,29.97,SW,228,8.0,10.0,49,0.00,,,0.00,954,weatherlink.com 1.10,2013-05-08 20:08:00,
2013-05-08 16:23:00,77.7,58.0,29.97,NW,316,2.0,4.0,51,0.01,,,0.01,963,weatherlink.com 1.10,2013-05-08 20:23:00,
2013-05-08 16:38:00,76.6,58.0,29.97,West,264,4.0,11.0,52,0.01,,,0.01,427,weatherlink.com 1.10,2013-05-08 20:38:00,
2013-05-08 16:53:00,76.2,57.0,29.97,SW,216,4.0,7.0,51,0.01,,,0.01,262,weatherlink.com 1.10,2013-05-08 20:53:00,
2013-05-08 17:08:00,72.1,55.0,29.97,SW,224,5.0,9.0,55,0.01,,,0.01,120,weatherlink.com 1.10,2013-05-08 21:08:00,
2013-05-08 17:23:00,70.5,56.0,29.97,WSW,246,1.0,4.0,60,0.00,,,0.01,162,weatherlink.com 1.10,2013-05-08 21:23:00,
2013-05-08 17:38:00,69.6,59.0,29.96,WSW,251,0.0,2.0,69,0.00,,,0.01,218,weatherlink.com 1.10,2013-05-08 21:38:00,
2013-05-08 17:53:00,69.7,58.0,29.96,WSW,251,0.0,0.0,66,0.00,,,0.01,320,weatherlink.com 1.10,2013-05-08 21:53:00,
2013-05-08 18:08:00,72.9,57.0,29.96,WSW,251,1.0,4.0,57,0.00,,,0.01,151,weatherlink.com 1.10,2013-05-08 22:08:00,
2013-05-08 18:23:00,75.2,58.0,29.96,SSW,209,4.0,5.0,55,0.00,,,0.01,429,weatherlink.com 1.10,2013-05-08 22:23:00,
2013-05-08 18:38:00,75.2,57.0,29.95,WSW,246,0.0,5.0,53,0.00,,,0.01,295,weatherlink.com 1.10,2013-05-08 22:38:00,
2013-05-08 18:53:00,75.1,58.0,29.96,WSW,238,2.0,4.0,55,0.00,,,0.01,98,weatherlink.com 1.10,2013-05-08 22:53:00,
2013-05-08 19:08:00,73.3,57.0,29.96,WSW,248,0.0,5.0,57,0.00,,,0.01,56,weatherlink.com 1.10,2013-05-08 23:08:00,
2013-05-08 19:23:00,71.3,56.0,29.96,NW,308,0.0,10.0,59,0.00,,,0.01,28,weatherlink.com 1.10,2013-05-08 23:23:00,
2013-05-08 19:38:00,68.7,55.0,29.96,WSW,237,2.0,8.0,61,0.00,,,0.01,26,weatherlink.com 1.10,2013-05-08 23:38:00,
2013-05-08 19:53:00,66.7,56.0,29.96,WSW,237,0.0,4.0,69,0.00,,,0.01,35,weatherlink.com 1.10,2013-05-08 23:53:00,
2013-05-08 20:08:00,66.0,52.0,29.96,WSW,237,0.0,0.0,61,0.00,,,0.01,30,weatherlink.com 1.10,2013-05-09 00:08:00,
2013-05-08 20:23:00,65.7,54.0,29.97,WSW,255,0.0,4.0,66,0.00,,,0.01,16,weatherlink.com 1.10,2013-05-09 00:23:00,
2013-05-08 20:38:00,65.7,54.0,29.97,WSW,246,1.0,8.0,67,0.00,,,0.01,5,weatherlink.com 1.10,2013-05-09 00:38:00,
2013-05-08 20:53:00,65.6,55.0,29.96,WSW,246,0.0,2.0,68,0.00,,,0.01,0,weatherlink.com 1.10,2013-05-09 00:53:00,
2013-05-08 21:08:00,65.2,54.0,29.96,SSW,205,0.0,2.0,68,0.00,,,0.01,0,weatherlink.com 1.10,2013-05-09 01:08:00,
2013-05-08 21:23:00,64.7,54.0,29.96,SSW,205,0.0,0.0,69,0.00,,,0.01,0,weatherlink.com 1.10,2013-05-09 01:23:00,
2013-05-08 21:38:00,64.0,54.0,29.97,SSW,205,0.0,0.0,71,0.00,,,0.01,0,weatherlink.com 1.10,2013-05-09 01:38:00,
2013-05-08 21:53:00,63.2,54.0,29.97,SSW,205,0.0,0.0,71,0.00,,,0.01,0,weatherlink.com 1.10,2013-05-09 01:53:00,
2013-05-08 22:08:00,62.8,54.0,29.98,SSW,205,0.0,0.0,72,0.00,,,0.01,0,weatherlink.com 1.10,2013-05-09 02:08:00,
2013-05-08 22:23:00,62.7,54.0,29.98,SSW,205,0.0,0.0,72,0.00,,,0.01,0,weatherlink.com 1.10,2013-05-09 02:23:00,
2013-05-08 22:38:00,62.7,53.0,29.98,SSW,205,0.0,0.0,71,0.00,,,0.01,0,weatherlink.com 1.10,2013-05-09 02:38:00,
2013-05-08 22:53:00,62.5,53.0,29.98,SSW,205,0.0,0.0,72,0.00,,,0.01,0,weatherlink.com 1.10,2013-05-09 02:53:00,
2013-05-08 23:08:00,62.6,53.0,29.99,SSW,205,0.0,0.0,71,0.00,,,0.01,0,weatherlink.com 1.10,2013-05-09 03:08:00,
2013-05-08 23:23:00,62.8,53.0,29.98,SSW,205,0.0,0.0,71,0.00,,,0.01,0,weatherlink.com 1.10,2013-05-09 03:23:00,
2013-05-08 23:38:00,62.5,53.0,29.98,SSW,205,0.0,0.0,72,0.00,,,0.01,0,weatherlink.com 1.10,2013-05-09 03:38:00,
2013-05-08 23:53:00,62.9,54.0,29.98,SSW,205,0.0,1.0,72,0.00,,,0.01,0,weatherlink.com 1.10,2013-05-09 03:53:00,